SBCF Airport Information

Runway Information
Runway 16 Length 9843 ft width 148 ft
Elevation 2712 ft Threshold 0 ft Heading 139
Runway 34 Length 9843 ft Width 148 ft
Elevation 2712 ft Threshold 0 ft Heading 319
Airport Frequencies
Type APP Name BELO HORIZ Frequency 120.2 MHZ
Type ATIS Name BELO HORIZ Frequency 127.45 MHZ
Type CLD Name CONFINS CL Frequency 121 MHZ
Type GND Name GND Frequency 121.9 MHZ
Type OPS Name BELO HORIZ Frequency 122.5 MHZ
Type TWR Name CONFINS TW Frequency 118.2 MHZ
Airport Navaids
Type VOR-DME Name Confins Frequency 114400 KHZ
Airport Weather Information & NOTAM
ADDS - METARS form results

(1857 UTC 25 June 2018)
 
METAR text: SBCF 251900Z 04008KT 9999 BKN040 23/09 Q1020
Conditions at: SBCF (BELO HORIZ/TANCR, BR) observed 1900 UTC 25 June 2018
Temperature: 23.0°C (73°F)
Dewpoint: 9.0°C (48°F) [RH = 41%]
Pressure (altimeter): 30.12 inches Hg (1020.0 mb)
Winds: from the NE (40 degrees) at 9 MPH (8 knots; 4.2 m/s)
Visibility: 6 or more miles (10+ km)
Ceiling: 4000 feet AGL
Clouds: broken clouds at 4000 feet AGL
Weather: no significant weather observed at this time

METAR text: SBCF 251800Z 03008KT 9999 BKN040 24/09 Q1020
Conditions at: SBCF (BELO HORIZ/TANCR, BR) observed 1800 UTC 25 June 2018
Temperature: 24.0°C (75°F)
Dewpoint: 9.0°C (48°F) [RH = 38%]
Pressure (altimeter): 30.12 inches Hg (1020.0 mb)
Winds: from the NNE (30 degrees) at 9 MPH (8 knots; 4.2 m/s)
Visibility: 6 or more miles (10+ km)
Ceiling: 4000 feet AGL
Clouds: broken clouds at 4000 feet AGL
Weather: no significant weather observed at this time